createdAt,value
2018-09-04T00:00:58.611Z,21.60
2018-09-04T00:02:34.932Z,21.40
2018-09-04T00:04:11.451Z,21.20
2018-09-04T00:05:47.902Z,21.00
2018-09-04T00:07:24.074Z,21.00
2018-09-04T00:09:00.138Z,21.00
2018-09-04T00:10:35.754Z,21.20
2018-09-04T00:12:11.607Z,21.40
2018-09-04T00:13:46.847Z,21.00
2018-09-04T00:15:22.528Z,20.70
2018-09-04T00:16:58.369Z,20.50
2018-09-04T00:18:33.587Z,20.70
2018-09-04T00:20:09.037Z,20.90
2018-09-04T00:21:44.241Z,20.90
2018-09-04T00:23:20.985Z,21.20
2018-09-04T00:24:56.303Z,21.30
2018-09-04T00:26:32.619Z,21.40
2018-09-04T00:28:07.959Z,21.50
2018-09-04T00:29:43.566Z,21.50
2018-09-04T00:31:19.293Z,21.50
2018-09-04T00:32:54.651Z,21.50
2018-09-04T00:36:14.383Z,21.50
2018-09-04T00:37:50.665Z,21.50
2018-09-04T00:39:26.016Z,21.60
2018-09-04T00:41:02.638Z,21.60
2018-09-04T00:42:38.516Z,21.50
2018-09-04T00:44:17.093Z,21.50
2018-09-04T00:45:53.363Z,21.60
2018-09-04T00:47:28.717Z,21.70
2018-09-04T00:49:04.443Z,21.80
2018-09-04T00:50:39.680Z,22.00
2018-09-04T00:52:15.076Z,22.20
2018-09-04T00:53:50.345Z,22.30
2018-09-04T00:55:27.198Z,22.30
2018-09-04T00:57:02.519Z,22.30
2018-09-04T00:58:38.010Z,22.10
2018-09-04T01:00:15.081Z,22.00
2018-09-04T01:01:50.451Z,22.00
2018-09-04T01:03:25.996Z,21.90
2018-09-04T01:05:01.436Z,21.50
2018-09-04T01:06:37.521Z,21.50
2018-09-04T01:08:13.072Z,21.50
2018-09-04T01:09:48.420Z,21.60
2018-09-04T01:11:23.784Z,21.60
2018-09-04T01:12:59.489Z,21.70
2018-09-04T01:14:35.456Z,21.90
2018-09-04T01:16:12.284Z,22.00
2018-09-04T01:17:48.169Z,22.10
2018-09-04T01:19:24.328Z,22.00
2018-09-04T01:21:00.008Z,22.00
2018-09-04T01:22:35.240Z,21.90
2018-09-04T01:24:11.157Z,21.90
2018-09-04T01:25:46.843Z,21.80
2018-09-04T01:27:22.164Z,21.60
2018-09-04T01:28:57.508Z,21.40
2018-09-04T01:30:33.794Z,21.30
2018-09-04T01:32:10.419Z,21.40
2018-09-04T01:33:45.820Z,21.50
2018-09-04T01:35:21.085Z,21.90
2018-09-04T01:36:56.419Z,22.10
2018-09-04T01:38:32.362Z,22.00
2018-09-04T01:40:07.696Z,21.70
2018-09-04T01:41:43.024Z,21.70
2018-09-04T01:43:18.258Z,21.50
2018-09-04T01:44:54.204Z,21.70
2018-09-04T01:46:30.385Z,21.90
2018-09-04T01:48:06.465Z,22.00
2018-09-04T01:49:41.882Z,22.00
2018-09-04T01:51:17.588Z,22.00
2018-09-04T01:52:52.760Z,21.90
2018-09-04T01:54:27.989Z,21.80
2018-09-04T01:56:03.497Z,21.70
2018-09-04T01:57:41.181Z,21.40
2018-09-04T01:59:17.236Z,21.00
2018-09-04T02:00:52.902Z,20.80
2018-09-04T02:02:28.157Z,20.70
2018-09-04T02:04:03.985Z,20.70
2018-09-04T02:05:39.291Z,20.90
2018-09-04T02:07:14.506Z,21.10
2018-09-04T02:08:49.776Z,21.20
2018-09-04T02:10:25.441Z,21.40
2018-09-04T02:12:01.043Z,21.40
2018-09-04T02:13:36.356Z,21.30
2018-09-04T02:15:13.914Z,21.20
2018-09-04T02:16:50.046Z,21.20
2018-09-04T02:18:25.267Z,21.20
2018-09-04T02:20:00.594Z,21.10
2018-09-04T02:21:35.837Z,21.10
2018-09-04T02:23:11.739Z,20.90
2018-09-04T02:28:22.920Z,20.80
2018-09-04T02:29:58.244Z,20.80
2018-09-04T02:31:34.013Z,20.90
2018-09-04T02:33:09.292Z,21.00
2018-09-04T02:34:44.933Z,21.10
2018-09-04T02:36:21.186Z,21.30
2018-09-04T02:37:56.662Z,21.40
2018-09-04T02:39:32.530Z,21.50
2018-09-04T02:41:09.000Z,21.50
2018-09-04T02:42:45.701Z,21.50
2018-09-04T02:44:21.296Z,21.40
2018-09-04T02:45:57.315Z,21.20
2018-09-04T02:47:32.892Z,21.20
2018-09-04T02:49:10.063Z,21.00
2018-09-04T02:50:46.210Z,20.90
2018-09-04T02:52:21.794Z,20.80
2018-09-04T02:53:57.579Z,20.60
2018-09-04T02:55:32.934Z,20.60
2018-09-04T02:57:08.254Z,20.90
2018-09-04T02:58:43.793Z,21.00
2018-09-04T03:00:19.712Z,21.00
2018-09-04T03:01:55.100Z,21.10
2018-09-04T03:03:30.292Z,21.10
2018-09-04T03:05:05.919Z,21.20
2018-09-04T03:06:42.463Z,21.20
2018-09-04T03:08:17.647Z,21.10
2018-09-04T03:09:52.842Z,21.00
2018-09-04T03:11:28.168Z,20.90
2018-09-04T03:13:03.796Z,20.90
2018-09-04T03:14:39.020Z,20.90
2018-09-04T03:16:14.565Z,20.80
2018-09-04T03:17:50.070Z,20.70
2018-09-04T03:21:07.789Z,20.80
2018-09-04T03:22:43.440Z,20.50
2018-09-04T03:24:18.658Z,20.30
2018-09-04T03:25:54.424Z,20.40
2018-09-04T03:27:29.564Z,20.50
2018-09-04T03:29:04.937Z,20.70
2018-09-04T03:30:41.015Z,20.90
2018-09-04T03:32:16.690Z,20.80
2018-09-04T03:33:52.025Z,20.60
2018-09-04T03:35:27.349Z,20.60
2018-09-04T03:37:03.033Z,20.80
2018-09-04T03:38:38.651Z,20.90
2018-09-04T03:40:14.133Z,20.90
2018-09-04T03:41:49.784Z,20.80
2018-09-04T03:43:25.011Z,20.50
2018-09-04T03:45:00.789Z,20.30
2018-09-04T03:46:36.946Z,20.20
2018-09-04T03:48:12.645Z,20.00
2018-09-04T03:49:51.512Z,19.90
2018-09-04T03:51:26.779Z,19.80
2018-09-04T03:53:02.835Z,19.50
2018-09-04T03:54:38.067Z,19.50
2018-09-04T03:56:13.767Z,19.50
2018-09-04T03:57:49.047Z,19.50
2018-09-04T03:59:26.012Z,19.60
2018-09-04T04:01:01.256Z,19.60
2018-09-04T04:02:36.771Z,19.50
2018-09-04T04:04:11.896Z,19.40
2018-09-04T04:05:47.059Z,19.40
2018-09-04T04:07:22.292Z,19.40
2018-09-04T04:08:57.745Z,19.50
2018-09-04T04:10:32.917Z,19.60
2018-09-04T04:12:08.214Z,19.60
2018-09-04T04:13:45.897Z,19.70
2018-09-04T04:15:21.293Z,19.80
2018-09-04T04:16:56.551Z,19.80
2018-09-04T04:18:31.721Z,19.90
2018-09-04T04:20:07.135Z,20.20
2018-09-04T04:21:48.906Z,20.30
2018-09-04T04:23:24.380Z,20.30
2018-09-04T04:24:59.536Z,20.30
2018-09-04T04:26:36.827Z,20.40
2018-09-04T04:28:13.292Z,20.50
2018-09-04T04:29:49.400Z,20.40
2018-09-04T04:31:25.879Z,20.30
2018-09-04T04:33:01.199Z,20.30
2018-09-04T04:34:36.946Z,20.20
2018-09-04T04:36:12.148Z,20.10
2018-09-04T04:37:47.862Z,19.80
2018-09-04T04:39:23.178Z,19.90
2018-09-04T04:40:59.812Z,20.00
2018-09-04T04:42:35.090Z,19.80
2018-09-04T04:44:10.213Z,19.60
2018-09-04T04:45:46.273Z,19.70
2018-09-04T04:47:27.436Z,19.70
2018-09-04T04:49:02.929Z,19.90
2018-09-04T04:50:38.197Z,19.90
2018-09-04T04:52:13.336Z,20.10
2018-09-04T04:53:49.630Z,20.10
2018-09-04T04:55:24.888Z,20.10
2018-09-04T04:57:00.101Z,20.10
2018-09-04T04:58:38.379Z,20.00
2018-09-04T05:00:16.314Z,20.00
2018-09-04T05:01:53.916Z,19.90
2018-09-04T05:03:30.195Z,20.00
2018-09-04T05:05:06.290Z,20.10
2018-09-04T05:06:41.972Z,20.20
2018-09-04T05:08:17.162Z,20.10
2018-09-04T05:09:52.980Z,20.00
2018-09-04T05:11:28.552Z,19.90
2018-09-04T05:13:05.368Z,19.70
2018-09-04T05:14:41.482Z,19.50
2018-09-04T05:16:16.889Z,19.50
2018-09-04T05:17:52.032Z,19.50
2018-09-04T05:19:27.795Z,19.70
2018-09-04T05:21:03.129Z,19.80
2018-09-04T05:22:38.292Z,19.70
2018-09-04T05:24:16.474Z,19.80
2018-09-04T05:25:52.636Z,19.80
2018-09-04T05:27:28.274Z,19.90
2018-09-04T05:29:03.729Z,19.90
2018-09-04T05:30:39.144Z,19.70
2018-09-04T05:32:19.624Z,19.80
2018-09-04T05:33:54.917Z,20.10
2018-09-04T05:35:34.338Z,20.20
2018-09-04T05:37:09.914Z,20.50
2018-09-04T05:38:46.004Z,20.70
2018-09-04T05:40:23.447Z,20.40
2018-09-04T05:43:02.933Z,20.40
2018-09-04T05:44:39.179Z,20.50
2018-09-04T05:46:19.647Z,20.30
2018-09-04T05:48:09.380Z,20.40
2018-09-04T05:49:50.036Z,20.50
2018-09-04T05:51:25.329Z,20.50
2018-09-04T05:53:00.628Z,20.50
2018-09-04T05:54:35.935Z,20.60
2018-09-04T05:56:17.993Z,21.00
2018-09-04T05:58:02.503Z,21.30
2018-09-04T05:59:43.880Z,21.50
2018-09-04T06:01:27.556Z,21.30
2018-09-04T06:03:08.321Z,21.40
2018-09-04T06:04:49.700Z,21.60
2018-09-04T06:06:30.670Z,21.50
2018-09-04T06:08:08.506Z,21.70
2018-09-04T06:09:45.922Z,21.90
2018-09-04T06:11:23.611Z,21.90
2018-09-04T06:13:06.500Z,21.40
2018-09-04T06:14:42.112Z,21.00
2018-09-04T06:16:18.590Z,20.80
2018-09-04T06:17:53.880Z,20.70
2018-09-04T06:19:30.577Z,20.60
2018-09-04T06:21:11.761Z,20.70
2018-09-04T06:23:02.391Z,20.50
2018-09-04T06:24:46.549Z,20.40
2018-09-04T06:26:21.843Z,20.60
2018-09-04T06:27:57.061Z,20.90
2018-09-04T06:29:32.333Z,21.10
2018-09-04T06:31:08.936Z,21.30
2018-09-04T06:32:45.975Z,21.20
2018-09-04T06:34:21.372Z,21.00
2018-09-04T06:35:57.592Z,21.00
2018-09-04T06:37:34.195Z,21.00
2018-09-04T06:39:16.331Z,21.10
2018-09-04T06:40:56.448Z,21.20
2018-09-04T06:42:34.555Z,21.40
2018-09-04T06:44:09.964Z,21.50
2018-09-04T06:45:46.539Z,21.30
2018-09-04T06:47:21.732Z,21.10
2018-09-04T06:48:57.552Z,21.10
2018-09-04T06:50:32.897Z,21.00
2018-09-04T06:52:11.795Z,21.00
2018-09-04T06:53:47.529Z,21.20
2018-09-04T06:55:23.457Z,21.60
2018-09-04T06:56:59.378Z,22.00
2018-09-04T06:58:35.316Z,22.40
2018-09-04T07:00:16.721Z,22.40
2018-09-04T07:01:53.921Z,22.70
2018-09-04T07:03:29.908Z,22.60
2018-09-04T07:05:06.413Z,22.50
2018-09-04T07:06:44.222Z,22.50
2018-09-04T07:08:22.369Z,22.30
2018-09-04T07:09:58.631Z,22.10
2018-09-04T07:11:33.883Z,21.90
2018-09-04T07:13:11.801Z,21.90
2018-09-04T07:14:48.188Z,21.70
2018-09-04T07:16:25.110Z,21.90
2018-09-04T07:18:03.726Z,22.00
2018-09-04T07:19:39.368Z,22.30
2018-09-04T07:21:15.502Z,22.10
2018-09-04T07:22:50.886Z,22.10
2018-09-04T07:24:27.438Z,22.30
2018-09-04T07:26:03.544Z,22.70
2018-09-04T07:27:42.633Z,22.60
2018-09-04T07:29:17.913Z,22.80
2018-09-04T07:30:56.390Z,23.10
2018-09-04T07:32:33.531Z,23.40
2018-09-04T07:34:11.025Z,23.80
2018-09-04T07:35:49.668Z,24.50
2018-09-04T07:37:26.843Z,24.30
2018-09-04T07:39:03.169Z,23.90
2018-09-04T07:40:40.281Z,23.60
2018-09-04T07:42:15.501Z,23.60
2018-09-04T07:43:54.889Z,23.90
2018-09-04T07:45:30.590Z,24.40
2018-09-04T07:49:00.656Z,23.90
2018-09-04T07:50:36.647Z,24.00
2018-09-04T07:52:12.738Z,24.60
2018-09-04T07:53:48.031Z,25.10
2018-09-04T07:55:23.925Z,25.40
2018-09-04T07:56:59.877Z,25.60
2018-09-04T07:58:39.185Z,25.10
2018-09-04T08:00:16.866Z,25.10
2018-09-04T08:01:52.649Z,24.80
2018-09-04T08:03:31.436Z,24.90
2018-09-04T08:05:12.137Z,24.30
2018-09-04T08:06:48.595Z,24.60
2018-09-04T08:08:24.889Z,24.50
2018-09-04T08:10:02.133Z,24.70
2018-09-04T08:11:37.365Z,25.30
2018-09-04T08:13:12.634Z,25.70
2018-09-04T08:14:48.288Z,25.30
2018-09-04T08:16:25.086Z,25.20
2018-09-04T08:18:02.649Z,25.00
2018-09-04T08:19:38.722Z,24.80
2018-09-04T08:21:14.283Z,25.30
2018-09-04T08:22:49.516Z,25.80
2018-09-04T08:24:25.189Z,26.20
2018-09-04T08:26:00.929Z,26.50
2018-09-04T08:27:40.781Z,26.70
2018-09-04T08:29:24.174Z,26.80
2018-09-04T08:31:01.096Z,26.90
2018-09-04T08:32:38.177Z,27.20
2018-09-04T08:34:15.922Z,27.20
2018-09-04T08:35:52.216Z,26.50
2018-09-04T08:37:27.858Z,26.30
2018-09-04T08:39:05.669Z,26.00
2018-09-04T08:40:41.519Z,26.40
2018-09-04T08:42:16.765Z,26.80
2018-09-04T08:43:52.417Z,27.20
2018-09-04T08:45:29.385Z,27.30
2018-09-04T08:47:05.600Z,27.40
2018-09-04T08:48:42.293Z,26.60
2018-09-04T08:50:29.008Z,26.60
2018-09-04T08:52:13.155Z,26.20
2018-09-04T08:53:57.796Z,26.00
2018-09-04T08:55:34.068Z,25.80
2018-09-04T08:57:15.770Z,25.10
2018-09-04T08:58:51.926Z,25.60
2018-09-04T09:00:28.377Z,26.40
2018-09-04T09:02:04.204Z,26.70
2018-09-04T09:03:43.574Z,26.90
2018-09-04T09:05:20.504Z,27.00
2018-09-04T09:06:55.915Z,26.80
2018-09-04T09:08:32.745Z,26.60
2018-09-04T09:10:09.015Z,26.50
2018-09-04T09:11:46.910Z,26.30
2018-09-04T09:13:28.532Z,25.90
2018-09-04T09:15:09.804Z,26.00
2018-09-04T09:16:49.422Z,26.30
2018-09-04T09:18:27.994Z,26.70
2018-09-04T09:20:10.906Z,27.10
2018-09-04T09:21:47.080Z,27.20
2018-09-04T09:23:28.193Z,27.40
2018-09-04T09:25:04.314Z,27.40
2018-09-04T09:26:42.416Z,27.30
2018-09-04T09:28:21.988Z,27.50
2018-09-04T09:30:00.608Z,27.40
2018-09-04T09:31:38.240Z,27.20
2018-09-04T09:33:14.904Z,27.30
2018-09-04T09:34:51.368Z,27.50
2018-09-04T09:36:27.087Z,27.80
2018-09-04T09:38:04.743Z,27.90
2018-09-04T09:39:40.676Z,27.80
2018-09-04T09:41:17.652Z,27.60
2018-09-04T09:43:00.796Z,27.30
2018-09-04T09:44:40.607Z,27.20
2018-09-04T09:46:20.465Z,27.30
2018-09-04T09:48:04.313Z,27.40
2018-09-04T09:49:44.195Z,27.20
2018-09-04T09:51:25.565Z,27.10
2018-09-04T09:53:06.928Z,26.90
2018-09-04T09:54:47.666Z,26.90
2018-09-04T09:56:24.834Z,26.90
2018-09-04T09:58:04.589Z,26.70
2018-09-04T09:59:40.211Z,26.90
2018-09-04T10:01:29.268Z,26.90
2018-09-04T10:03:09.570Z,27.00
2018-09-04T10:04:46.793Z,27.00
2018-09-04T10:06:23.086Z,27.00
2018-09-04T10:07:58.804Z,26.80
2018-09-04T10:09:37.366Z,26.60
2018-09-04T10:11:16.252Z,26.30
2018-09-04T10:12:53.458Z,26.40
2018-09-04T10:14:29.298Z,26.50
2018-09-04T10:16:09.460Z,26.40
2018-09-04T10:17:45.195Z,26.40
2018-09-04T10:19:22.849Z,26.10
2018-09-04T10:21:00.295Z,26.00
2018-09-04T10:22:39.485Z,26.00
2018-09-04T10:24:17.672Z,26.30
2018-09-04T10:25:53.632Z,26.50
2018-09-04T10:27:33.303Z,26.70
2018-09-04T10:29:11.236Z,26.80
2018-09-04T10:30:48.875Z,26.80
2018-09-04T10:32:24.309Z,26.90
2018-09-04T10:33:59.595Z,26.70
2018-09-04T10:35:37.618Z,26.80
2018-09-04T10:37:13.862Z,25.90
2018-09-04T10:41:09.785Z,26.30
2018-09-04T10:42:59.699Z,26.50
2018-09-04T10:44:43.520Z,26.50
2018-09-04T10:46:23.698Z,26.40
2018-09-04T10:48:00.037Z,26.00
2018-09-04T10:49:36.510Z,25.90
2018-09-04T10:51:13.700Z,26.30
2018-09-04T10:54:29.380Z,26.30
2018-09-04T10:56:07.347Z,25.80
2018-09-04T10:57:44.739Z,26.40
2018-09-04T10:59:23.559Z,26.60
2018-09-04T11:00:59.290Z,26.70
2018-09-04T11:02:35.943Z,26.90
2018-09-04T11:04:17.081Z,27.30
2018-09-04T11:05:55.581Z,27.80
2018-09-04T11:07:43.559Z,27.20
2018-09-04T11:09:34.174Z,26.50
2018-09-04T11:11:23.609Z,26.30
2018-09-04T11:13:00.513Z,27.00
2018-09-04T11:14:36.381Z,27.30
2018-09-04T11:16:19.941Z,27.10
2018-09-04T11:17:56.332Z,27.30
2018-09-04T11:19:35.922Z,26.60
2018-09-04T11:21:15.883Z,26.50
2018-09-04T11:22:52.456Z,26.30
2018-09-04T11:24:28.794Z,25.80
2018-09-04T11:26:04.933Z,25.60
2018-09-04T11:27:41.653Z,25.70
2018-09-04T11:29:17.240Z,26.00
2018-09-04T11:30:53.144Z,26.70
2018-09-04T11:32:29.790Z,26.90
2018-09-04T11:34:07.035Z,27.20
2018-09-04T11:35:42.548Z,27.30
2018-09-04T11:37:18.300Z,27.40
2018-09-04T11:38:55.068Z,27.40
2018-09-04T11:40:33.684Z,27.40
2018-09-04T11:42:14.032Z,27.20
2018-09-04T11:43:51.445Z,26.50
2018-09-04T11:45:31.734Z,26.20
2018-09-04T11:47:07.890Z,26.70
2018-09-04T11:48:43.540Z,27.10
2018-09-04T11:50:22.203Z,27.20
2018-09-04T11:51:58.799Z,27.40
2018-09-04T11:53:36.494Z,27.50
2018-09-04T11:55:14.585Z,27.40
2018-09-04T11:57:07.380Z,27.70
2018-09-04T11:58:43.678Z,27.90
2018-09-04T12:00:45.295Z,27.90
2018-09-04T12:02:30.478Z,27.80
2018-09-04T12:04:07.934Z,27.90
2018-09-04T12:05:45.939Z,27.90
2018-09-04T12:07:22.235Z,27.90
2018-09-04T12:08:58.654Z,27.80
2018-09-04T12:10:39.405Z,27.70
2018-09-04T12:12:22.892Z,27.60
2018-09-04T12:14:01.935Z,27.50
2018-09-04T12:15:41.768Z,27.10
2018-09-04T12:17:19.532Z,27.30
2018-09-04T12:18:57.269Z,27.50
2018-09-04T12:20:56.118Z,27.70
2018-09-04T12:22:31.553Z,27.90
2018-09-04T12:24:08.033Z,27.80
2018-09-04T12:25:44.592Z,27.80
2018-09-04T12:27:20.753Z,28.00
2018-09-04T12:28:57.882Z,28.20
2018-09-04T12:30:34.561Z,28.20
2018-09-04T12:32:12.496Z,28.20
2018-09-04T12:33:47.931Z,27.60
2018-09-04T12:35:23.370Z,27.80
2018-09-04T12:37:00.638Z,28.10
2018-09-04T12:38:39.456Z,28.30
2018-09-04T12:40:17.757Z,28.30
2018-09-04T12:41:54.713Z,28.30
2018-09-04T12:43:31.345Z,28.20
2018-09-04T12:45:11.840Z,28.10
2018-09-04T12:46:47.508Z,28.10
2018-09-04T12:48:25.245Z,27.90
2018-09-04T12:50:02.967Z,27.90
2018-09-04T12:51:39.712Z,28.00
2018-09-04T12:53:15.668Z,28.20
2018-09-04T12:54:51.246Z,28.30
2018-09-04T12:56:29.255Z,28.50
2018-09-04T12:58:07.999Z,28.40
2018-09-04T12:59:46.863Z,28.40
2018-09-04T13:01:24.359Z,28.00
2018-09-04T13:03:00.813Z,27.80
2018-09-04T13:04:37.796Z,28.10
2018-09-04T13:06:13.881Z,28.30
2018-09-04T13:07:49.769Z,28.30
2018-09-04T13:09:26.312Z,28.20
2018-09-04T13:11:02.693Z,28.10
2018-09-04T13:12:41.259Z,28.20
2018-09-04T13:14:16.602Z,28.30
2018-09-04T13:15:56.177Z,28.40
2018-09-04T13:17:35.965Z,28.50
2018-09-04T13:19:11.483Z,28.60
2018-09-04T13:20:46.896Z,28.50
2018-09-04T13:22:24.624Z,28.40
2018-09-04T13:24:02.841Z,28.00
2018-09-04T13:25:39.092Z,27.80
2018-09-04T13:27:15.822Z,27.30
2018-09-04T13:28:51.293Z,27.00
2018-09-04T13:30:28.077Z,26.80
2018-09-04T13:32:05.359Z,26.50
2018-09-04T13:33:43.217Z,26.30
2018-09-04T13:35:19.584Z,26.30
2018-09-04T13:36:55.323Z,26.40
2018-09-04T13:38:33.534Z,26.60
2018-09-04T13:40:16.481Z,27.20
2018-09-04T13:41:54.809Z,27.70
2018-09-04T13:43:33.897Z,27.70
2018-09-04T13:45:10.685Z,27.80
2018-09-04T13:47:20.043Z,28.20
2018-09-04T13:48:59.969Z,28.50
2018-09-04T13:50:38.932Z,28.30
2018-09-04T13:52:16.183Z,28.60
2018-09-04T13:53:56.097Z,28.70
2018-09-04T13:55:49.794Z,28.70
2018-09-04T13:57:41.519Z,27.90
2018-09-04T13:59:26.864Z,28.00
2018-09-04T14:01:06.094Z,28.10
2018-09-04T14:02:45.653Z,28.40
2018-09-04T14:04:24.540Z,28.20
2018-09-04T14:06:00.747Z,28.60
2018-09-04T14:07:38.351Z,29.10
2018-09-04T14:09:21.679Z,29.40
2018-09-04T14:10:58.201Z,29.30
2018-09-04T14:12:33.888Z,29.20
2018-09-04T14:14:16.502Z,29.10
2018-09-04T14:16:12.481Z,29.20
2018-09-04T14:19:41.290Z,29.00
2018-09-04T14:21:17.564Z,29.00
2018-09-04T14:22:53.292Z,28.50
2018-09-04T14:24:31.680Z,28.60
2018-09-04T14:26:07.300Z,28.80
2018-09-04T14:27:45.734Z,28.70
2018-09-04T14:29:53.164Z,28.60
2018-09-04T14:30:59.481Z,28.70
2018-09-04T14:32:35.939Z,28.80
2018-09-04T14:34:11.629Z,28.60
2018-09-04T14:35:48.543Z,28.80
2018-09-04T14:37:24.146Z,29.00
2018-09-04T14:39:02.063Z,29.20
2018-09-04T14:40:37.684Z,28.90
2018-09-04T14:42:15.073Z,28.90
2018-09-04T14:43:50.281Z,28.80
2018-09-04T14:45:26.475Z,28.50
2018-09-04T14:47:02.691Z,28.50
2018-09-04T14:48:38.583Z,28.60
2018-09-04T14:50:21.343Z,28.60
2018-09-04T14:52:01.733Z,28.50
2018-09-04T14:53:37.934Z,28.40
2018-09-04T14:55:16.508Z,28.40
2018-09-04T14:56:55.466Z,28.40
2018-09-04T14:58:32.057Z,28.70
2018-09-04T15:00:09.987Z,28.80
2018-09-04T15:01:48.806Z,28.10
2018-09-04T15:07:52.567Z,27.10
2018-09-04T15:09:28.658Z,27.50
2018-09-04T15:11:03.868Z,27.00
2018-09-04T15:12:42.526Z,25.50
2018-09-04T15:14:17.848Z,25.10
2018-09-04T15:15:54.416Z,24.80
2018-09-04T15:17:35.540Z,24.60
2018-09-04T15:19:12.020Z,24.40
2018-09-04T15:20:51.622Z,24.20
2018-09-04T15:22:26.859Z,23.60
2018-09-04T15:24:03.527Z,23.60
2018-09-04T15:25:39.963Z,23.50
2018-09-04T15:27:20.220Z,23.40
2018-09-04T15:28:57.032Z,23.40
2018-09-04T15:30:32.311Z,23.00
2018-09-04T15:32:09.545Z,22.70
2018-09-04T15:33:47.029Z,22.50
2018-09-04T15:35:25.179Z,22.30
2018-09-04T15:37:00.677Z,22.20
2018-09-04T15:38:38.998Z,22.00
2018-09-04T15:40:14.245Z,21.90
2018-09-04T15:41:49.796Z,21.80
2018-09-04T15:43:25.956Z,21.80
2018-09-04T15:45:01.435Z,21.70
2018-09-04T15:46:37.043Z,21.80
2018-09-04T15:48:13.286Z,21.90
2018-09-04T15:49:49.538Z,22.20
2018-09-04T15:51:24.840Z,22.20
2018-09-04T15:53:00.065Z,22.40
2018-09-04T15:54:36.376Z,22.50
2018-09-04T15:56:11.643Z,22.20
2018-09-04T15:57:47.547Z,22.30
2018-09-04T15:59:22.743Z,22.60
2018-09-04T16:01:04.020Z,22.60
2018-09-04T16:02:40.920Z,22.40
2018-09-04T16:04:16.194Z,22.00
2018-09-04T16:05:51.591Z,22.10
2018-09-04T16:07:28.439Z,21.70
2018-09-04T16:09:06.267Z,21.80
2018-09-04T16:10:43.354Z,21.60
2018-09-04T16:12:19.717Z,21.80
2018-09-04T16:13:59.064Z,22.10
2018-09-04T16:18:00.517Z,22.80
2018-09-04T16:19:44.706Z,22.80
2018-09-04T16:21:21.844Z,22.80
2018-09-04T16:22:58.819Z,22.90
2018-09-04T16:24:37.304Z,23.10
2018-09-04T16:26:14.744Z,23.30
2018-09-04T16:27:52.085Z,23.30
2018-09-04T16:29:28.404Z,23.40
2018-09-04T16:31:06.775Z,23.60
2018-09-04T16:32:43.478Z,23.60
2018-09-04T16:34:19.264Z,23.50
2018-09-04T16:35:55.514Z,23.60
2018-09-04T16:37:31.369Z,23.70
2018-09-04T16:39:07.491Z,23.70
2018-09-04T16:40:43.898Z,23.70
2018-09-04T16:42:23.099Z,23.70
2018-09-04T16:43:58.508Z,23.80
2018-09-04T16:45:41.252Z,23.80
2018-09-04T16:47:24.985Z,23.90
2018-09-04T16:49:00.356Z,23.90
2018-09-04T16:50:36.394Z,23.70
2018-09-04T16:52:19.662Z,23.80
2018-09-04T16:53:56.772Z,23.90
2018-09-04T16:55:34.456Z,23.90
2018-09-04T16:57:17.711Z,24.00
2018-09-04T16:58:59.206Z,23.90
2018-09-04T17:00:37.171Z,23.80
2018-09-04T17:02:13.976Z,23.80
2018-09-04T17:03:50.488Z,23.90
2018-09-04T17:05:29.489Z,23.90
2018-09-04T17:07:08.630Z,23.90
2018-09-04T17:09:06.626Z,23.70
2018-09-04T17:10:53.775Z,23.60
2018-09-04T17:12:40.462Z,23.60
2018-09-04T17:14:23.151Z,23.60
2018-09-04T17:16:01.377Z,23.60
2018-09-04T17:17:36.657Z,23.70
2018-09-04T17:19:17.389Z,23.70
2018-09-04T17:21:03.021Z,23.70
2018-09-04T17:22:48.550Z,23.70
2018-09-04T17:24:28.861Z,23.60
2018-09-04T17:26:04.197Z,23.50
2018-09-04T17:27:40.515Z,23.50
2018-09-04T17:29:18.624Z,23.40
2018-09-04T17:30:58.809Z,23.30
2018-09-04T17:32:36.553Z,23.30
2018-09-04T17:34:20.760Z,23.30
2018-09-04T17:35:58.861Z,23.20
2018-09-04T17:37:37.878Z,22.90
2018-09-04T17:39:16.022Z,22.70
2018-09-04T17:40:52.515Z,22.40
2018-09-04T17:42:33.370Z,22.20
2018-09-04T17:44:20.028Z,22.10
2018-09-04T17:46:02.530Z,22.00
2018-09-04T17:47:41.516Z,22.10
2018-09-04T17:49:18.477Z,22.40
2018-09-04T17:52:48.193Z,22.30
2018-09-04T17:54:25.491Z,22.50
2018-09-04T17:56:08.162Z,22.60
2018-09-04T17:57:46.250Z,22.70
2018-09-04T17:59:22.992Z,22.70
2018-09-04T18:01:15.382Z,22.90
2018-09-04T18:03:16.752Z,22.80
2018-09-04T18:04:57.630Z,23.00
2018-09-04T18:06:35.086Z,22.60
2018-09-04T18:08:12.602Z,22.40
2018-09-04T18:09:50.667Z,22.30
2018-09-04T18:11:32.210Z,22.20
2018-09-04T18:13:08.442Z,22.50
2018-09-04T18:14:45.716Z,22.70
2018-09-04T18:16:23.903Z,22.90
2018-09-04T18:17:59.952Z,23.10
2018-09-04T18:19:37.439Z,23.30
2018-09-04T18:21:14.991Z,23.10
2018-09-04T18:22:59.542Z,23.10
2018-09-04T18:24:37.210Z,23.00
2018-09-04T18:26:13.884Z,22.70
2018-09-04T18:27:52.799Z,22.10
2018-09-04T18:29:28.433Z,22.10
2018-09-04T18:31:05.954Z,22.10
2018-09-04T18:32:42.003Z,21.90
2018-09-04T18:34:17.213Z,21.60
2018-09-04T18:35:52.676Z,21.40
2018-09-04T18:37:30.086Z,21.30
2018-09-04T18:39:06.906Z,21.50
2018-09-04T18:40:44.604Z,21.90
2018-09-04T18:42:19.890Z,22.20
2018-09-04T18:43:55.400Z,22.40
2018-09-04T18:45:51.158Z,22.70
2018-09-04T18:47:29.259Z,22.90
2018-09-04T18:49:04.751Z,23.20
2018-09-04T18:50:44.217Z,23.40
2018-09-04T18:52:22.493Z,23.30
2018-09-04T18:53:59.624Z,23.30
2018-09-04T18:55:37.297Z,23.40
2018-09-04T18:57:13.239Z,23.10
2018-09-04T18:58:50.720Z,22.90
2018-09-04T19:00:28.613Z,23.10
2018-09-04T19:02:08.278Z,23.50
2018-09-04T19:03:44.702Z,23.70
2018-09-04T19:05:20.061Z,23.80
2018-09-04T19:06:57.923Z,23.70
2018-09-04T19:08:34.958Z,23.70
2018-09-04T19:10:12.464Z,23.80
2018-09-04T19:11:49.502Z,23.70
2018-09-04T19:13:27.146Z,23.60
2018-09-04T19:15:04.379Z,23.50
2018-09-04T19:16:42.529Z,23.70
2018-09-04T19:18:22.856Z,23.60
2018-09-04T19:19:59.536Z,23.20
2018-09-04T19:21:36.155Z,22.60
2018-09-04T19:23:14.315Z,22.30
2018-09-04T19:24:56.704Z,22.20
2018-09-04T19:26:34.927Z,22.10
2018-09-04T19:28:20.852Z,22.20
2018-09-04T19:29:57.326Z,22.20
2018-09-04T19:31:39.547Z,22.50
2018-09-04T19:33:15.434Z,22.60
2018-09-04T19:34:51.898Z,22.70
2018-09-04T19:36:27.882Z,22.70
2018-09-04T19:38:03.583Z,22.60
2018-09-04T19:39:41.332Z,22.30
2018-09-04T19:41:18.958Z,22.30
2018-09-04T19:42:57.269Z,22.30
2018-09-04T19:44:33.601Z,22.30
2018-09-04T19:46:11.310Z,22.70
2018-09-04T19:47:48.184Z,23.00
2018-09-04T19:49:26.323Z,22.90
2018-09-04T19:51:20.408Z,22.80
2018-09-04T19:53:24.629Z,23.10
2018-09-04T19:55:09.593Z,23.40
2018-09-04T19:56:56.146Z,23.50
2018-09-04T19:58:34.304Z,23.20
2018-09-04T20:00:16.644Z,22.80
2018-09-04T20:01:54.003Z,22.50
2018-09-04T20:03:32.676Z,22.60
2018-09-04T20:05:11.264Z,22.30
2018-09-04T20:06:49.552Z,21.90
2018-09-04T20:08:30.501Z,21.50
2018-09-04T20:10:06.501Z,21.40
2018-09-04T20:11:45.466Z,21.40
2018-09-04T20:13:22.633Z,21.60
2018-09-04T20:15:06.195Z,22.00
2018-09-04T20:16:44.090Z,22.30
2018-09-04T20:18:20.937Z,22.20
2018-09-04T20:19:58.196Z,22.20
2018-09-04T20:21:35.438Z,22.50
2018-09-04T20:23:15.494Z,22.80
2018-09-04T20:24:51.368Z,23.00
2018-09-04T20:26:28.687Z,22.60
2018-09-04T20:28:04.267Z,22.20
2018-09-04T20:29:40.358Z,21.90
2018-09-04T20:31:15.833Z,21.60
2018-09-04T20:32:51.810Z,21.60
2018-09-04T20:34:31.244Z,21.80
2018-09-04T20:36:06.809Z,22.10
2018-09-04T20:37:43.363Z,22.50
2018-09-04T20:39:19.350Z,22.70
2018-09-04T20:40:55.341Z,22.80
2018-09-04T20:42:30.733Z,22.70
2018-09-04T20:44:07.797Z,22.80
2018-09-04T20:45:44.786Z,22.80
2018-09-04T20:47:22.787Z,22.80
2018-09-04T20:48:58.797Z,22.90
2018-09-04T20:50:36.118Z,23.10
2018-09-04T20:52:12.542Z,22.80
2018-09-04T20:53:48.629Z,22.30
2018-09-04T20:55:25.717Z,22.20
2018-09-04T20:57:32.543Z,22.10
2018-09-04T20:59:29.719Z,22.10
2018-09-04T21:01:21.734Z,21.70
2018-09-04T21:03:15.343Z,21.60
2018-09-04T21:05:09.517Z,21.90
2018-09-04T21:06:50.153Z,22.00
2018-09-04T21:08:45.911Z,22.40
2018-09-04T21:10:21.443Z,22.60
2018-09-04T21:12:01.514Z,22.70
2018-09-04T21:13:38.468Z,22.90
2018-09-04T21:15:17.056Z,23.00
2018-09-04T21:16:55.966Z,23.20
2018-09-04T21:18:31.916Z,23.10
2018-09-04T21:20:08.994Z,23.00
2018-09-04T21:21:48.641Z,23.00
2018-09-04T21:23:24.170Z,22.80
2018-09-04T21:25:01.980Z,22.50